createdAt,value
2023-05-24T00:00:34.086Z,101752.84
2023-05-24T00:03:04.862Z,101749.97
2023-05-24T00:05:32.924Z,101749.44
2023-05-24T00:08:01.272Z,101743.25
2023-05-24T00:10:29.241Z,101755.44
2023-05-24T00:12:57.235Z,101755.34
2023-05-24T00:15:25.208Z,101757.13
2023-05-24T00:17:53.230Z,101760.81
2023-05-24T00:20:22.765Z,101756.50
2023-05-24T00:22:51.730Z,101759.19
2023-05-24T00:25:19.847Z,101752.28
2023-05-24T00:27:47.721Z,101762.66
2023-05-24T00:30:15.887Z,101759.97
2023-05-24T00:32:44.087Z,101766.22
2023-05-24T00:35:12.052Z,101750.38
2023-05-24T00:37:45.155Z,101760.81
2023-05-24T00:40:13.824Z,101762.75
2023-05-24T00:42:41.818Z,101754.13
2023-05-24T00:45:10.931Z,101756.88
2023-05-24T00:47:39.008Z,101754.34
2023-05-24T00:50:09.452Z,101755.59
2023-05-24T00:52:37.536Z,101759.75
2023-05-24T00:55:08.356Z,101760.38
2023-05-24T00:57:37.649Z,101761.13
2023-05-24T01:00:07.961Z,101755.41
2023-05-24T01:02:35.934Z,101757.84
2023-05-24T01:05:04.157Z,101759.91
2023-05-24T01:07:40.484Z,101765.75
2023-05-24T01:10:18.140Z,101762.72
2023-05-24T01:12:54.893Z,101762.88
2023-05-24T01:15:29.604Z,101763.19
2023-05-24T01:18:05.287Z,101764.19
2023-05-24T01:20:38.402Z,101763.41
2023-05-24T01:23:19.884Z,101768.19
2023-05-24T01:26:17.693Z,101766.41
2023-05-24T01:28:48.999Z,101764.91
2023-05-24T01:31:19.755Z,101774.53
2023-05-24T01:33:47.804Z,101775.19
2023-05-24T01:36:15.845Z,101771.91
2023-05-24T01:38:44.780Z,101779.03
2023-05-24T01:41:24.705Z,101777.59
2023-05-24T01:44:01.214Z,101778.69
2023-05-24T01:46:36.830Z,101792.81
2023-05-24T01:49:24.162Z,101798.81
2023-05-24T01:51:57.436Z,101803.09
2023-05-24T01:54:27.792Z,101806.56
2023-05-24T01:56:57.194Z,101812.25
2023-05-24T01:59:30.021Z,101804.00
2023-05-24T02:01:58.507Z,101800.63
2023-05-24T02:04:27.036Z,101799.03
2023-05-24T02:06:55.094Z,101806.19
2023-05-24T02:09:22.992Z,101801.91
2023-05-24T02:11:51.030Z,101806.19
2023-05-24T02:14:20.066Z,101799.97
2023-05-24T02:16:50.817Z,101808.50
2023-05-24T02:19:18.922Z,101813.50
2023-05-24T02:21:49.824Z,101819.38
2023-05-24T02:24:18.714Z,101820.28
2023-05-24T02:26:46.724Z,101807.31
2023-05-24T02:29:15.548Z,101805.66
2023-05-24T02:31:43.552Z,101812.75
2023-05-24T02:34:12.827Z,101808.28
2023-05-24T02:36:40.731Z,101814.16
2023-05-24T02:39:08.733Z,101808.00
2023-05-24T02:41:36.706Z,101797.72
2023-05-24T02:44:04.726Z,101797.03
2023-05-24T02:46:32.668Z,101791.88
2023-05-24T02:49:00.832Z,101791.03
2023-05-24T02:51:30.150Z,101794.56
2023-05-24T02:53:58.127Z,101787.72
2023-05-24T02:56:26.646Z,101788.75
2023-05-24T02:58:55.802Z,101785.38
2023-05-24T03:01:24.139Z,101787.94
2023-05-24T03:03:52.255Z,101780.78
2023-05-24T03:06:20.843Z,101773.69
2023-05-24T03:08:51.134Z,101774.31
2023-05-24T03:11:22.176Z,101770.03
2023-05-24T03:13:50.529Z,101767.41
2023-05-24T03:16:18.502Z,101765.53
2023-05-24T03:18:46.473Z,101761.13
2023-05-24T03:21:14.545Z,101749.66
2023-05-24T03:23:43.108Z,101747.59
2023-05-24T03:26:13.672Z,101747.31
2023-05-24T03:28:42.012Z,101755.69
2023-05-24T03:31:10.041Z,101748.38
2023-05-24T03:33:37.965Z,101761.88
2023-05-24T03:36:06.714Z,101763.13
2023-05-24T03:38:34.822Z,101764.94
2023-05-24T03:41:02.752Z,101758.00
2023-05-24T03:43:32.133Z,101757.22
2023-05-24T03:46:00.090Z,101768.22
2023-05-24T03:48:30.264Z,101768.53
2023-05-24T03:50:58.196Z,101771.59
2023-05-24T03:53:26.561Z,101774.22
2023-05-24T03:55:54.603Z,101772.94
2023-05-24T03:58:22.593Z,101773.22
2023-05-24T04:00:51.997Z,101770.69
2023-05-24T04:03:20.359Z,101764.38
2023-05-24T04:05:48.619Z,101769.00
2023-05-24T04:08:16.585Z,101773.34
2023-05-24T04:10:44.771Z,101771.97
2023-05-24T04:13:13.133Z,101775.53
2023-05-24T04:15:41.037Z,101772.56
2023-05-24T04:18:10.427Z,101768.44
2023-05-24T04:20:38.626Z,101774.91
2023-05-24T04:23:06.628Z,101765.34
2023-05-24T04:25:35.199Z,101768.63
2023-05-24T04:28:04.019Z,101771.25
2023-05-24T04:30:32.040Z,101776.47
2023-05-24T04:33:00.267Z,101786.00
2023-05-24T04:35:30.206Z,101784.19
2023-05-24T04:37:59.813Z,101787.13
2023-05-24T04:40:27.751Z,101792.88
2023-05-24T04:42:55.617Z,101795.75
2023-05-24T04:45:23.618Z,101796.75
2023-05-24T04:47:51.658Z,101791.59
2023-05-24T04:50:19.645Z,101798.06
2023-05-24T04:52:48.933Z,101798.84
2023-05-24T04:55:16.844Z,101803.09
2023-05-24T04:57:44.755Z,101804.59
2023-05-24T05:00:13.982Z,101807.72
2023-05-24T05:02:42.027Z,101808.66
2023-05-24T05:05:10.424Z,101808.56
2023-05-24T05:07:38.528Z,101815.50
2023-05-24T05:10:09.476Z,101821.31
2023-05-24T05:12:37.409Z,101816.84
2023-05-24T05:15:06.504Z,101817.41
2023-05-24T05:17:34.449Z,101815.50
2023-05-24T05:20:02.387Z,101809.50
2023-05-24T05:22:31.367Z,101807.09
2023-05-24T05:24:59.388Z,101813.81
2023-05-24T05:27:28.667Z,101814.53
2023-05-24T05:29:56.654Z,101814.53
2023-05-24T05:32:24.789Z,101801.56
2023-05-24T05:34:52.668Z,101794.66
2023-05-24T05:37:20.736Z,101794.75
2023-05-24T05:39:51.655Z,101795.41
2023-05-24T05:42:19.666Z,101798.25
2023-05-24T05:44:49.014Z,101799.34
2023-05-24T05:47:16.904Z,101792.41
2023-05-24T05:49:44.806Z,101794.16
2023-05-24T05:52:12.875Z,101787.97
2023-05-24T05:54:40.830Z,101786.31
2023-05-24T05:57:11.580Z,101796.00
2023-05-24T05:59:39.532Z,101791.78
2023-05-24T06:02:08.877Z,101801.53
2023-05-24T06:04:36.867Z,101793.59
2023-05-24T06:07:04.900Z,101792.03
2023-05-24T06:09:32.973Z,101790.81
2023-05-24T06:12:01.313Z,101794.19
2023-05-24T06:14:29.332Z,101792.78
2023-05-24T06:16:58.036Z,101795.66
2023-05-24T06:19:29.514Z,101801.19
2023-05-24T06:21:57.625Z,101801.47
2023-05-24T06:24:26.102Z,101804.53
2023-05-24T06:26:54.492Z,101808.44
2023-05-24T06:29:22.970Z,101816.88
2023-05-24T06:31:51.439Z,101809.25
2023-05-24T06:34:21.532Z,101816.41
2023-05-24T06:36:51.755Z,101810.25
2023-05-24T06:39:20.089Z,101804.00
2023-05-24T06:41:51.166Z,101813.03
2023-05-24T06:44:19.525Z,101811.19
2023-05-24T06:46:47.977Z,101809.88
2023-05-24T06:49:16.050Z,101808.03
2023-05-24T06:51:44.923Z,101812.47
2023-05-24T06:54:14.197Z,101804.34
2023-05-24T06:56:42.130Z,101802.38
2023-05-24T06:59:10.598Z,101796.94
2023-05-24T07:01:39.910Z,101791.63
2023-05-24T07:04:08.000Z,101787.97
2023-05-24T07:06:37.613Z,101790.53
2023-05-24T07:09:06.001Z,101792.38
2023-05-24T07:11:35.409Z,101781.09
2023-05-24T07:14:03.591Z,101784.38
2023-05-24T07:16:31.519Z,101786.56
2023-05-24T07:19:00.358Z,101777.81
2023-05-24T07:21:29.292Z,101792.00
2023-05-24T07:23:57.144Z,101790.44
2023-05-24T07:26:25.128Z,101790.31
2023-05-24T07:28:54.533Z,101785.72
2023-05-24T07:31:22.933Z,101787.22
2023-05-24T07:33:50.912Z,101785.25
2023-05-24T07:36:18.932Z,101790.63
2023-05-24T07:38:47.099Z,101791.69
2023-05-24T07:41:15.412Z,101785.44
2023-05-24T07:43:43.304Z,101795.38
2023-05-24T07:46:12.724Z,101792.97
2023-05-24T07:48:40.664Z,101795.28
2023-05-24T07:51:08.583Z,101791.19
2023-05-24T07:53:37.753Z,101788.94
2023-05-24T07:56:06.258Z,101792.22
2023-05-24T07:58:34.157Z,101796.09
2023-05-24T08:01:02.148Z,101789.84
2023-05-24T08:03:31.507Z,101790.75
2023-05-24T08:05:59.521Z,101778.78
2023-05-24T08:08:27.541Z,101788.81
2023-05-24T08:10:55.551Z,101787.94
2023-05-24T08:13:23.486Z,101788.72
2023-05-24T08:15:51.679Z,101783.91
2023-05-24T08:18:19.628Z,101790.03
2023-05-24T08:20:49.062Z,101784.63
2023-05-24T08:23:17.124Z,101778.59
2023-05-24T08:25:45.278Z,101782.41
2023-05-24T08:28:13.407Z,101785.34
2023-05-24T08:30:41.665Z,101787.81
2023-05-24T08:33:09.614Z,101779.38
2023-05-24T08:35:37.484Z,101780.03
2023-05-24T08:38:07.082Z,101786.19
2023-05-24T08:40:34.980Z,101780.72
2023-05-24T08:43:03.472Z,101782.88
2023-05-24T08:45:32.531Z,101785.00
2023-05-24T08:48:01.379Z,101780.66
2023-05-24T08:50:29.895Z,101780.03
2023-05-24T08:52:59.373Z,101768.50
2023-05-24T08:55:31.089Z,101765.72
2023-05-24T08:58:01.684Z,101764.84
2023-05-24T09:00:29.601Z,101761.78
2023-05-24T09:03:00.043Z,101758.63
2023-05-24T09:05:28.375Z,101760.84
2023-05-24T09:07:57.963Z,101758.47
2023-05-24T09:10:37.921Z,101761.22
2023-05-24T09:13:11.159Z,101763.66
2023-05-24T09:15:39.721Z,101770.94
2023-05-24T09:18:07.784Z,101766.53
2023-05-24T09:20:35.928Z,101760.38
2023-05-24T09:23:07.683Z,101756.84
2023-05-24T09:25:37.280Z,101762.03
2023-05-24T09:28:08.637Z,101767.44
2023-05-24T09:30:37.450Z,101763.53
2023-05-24T09:33:08.430Z,101757.00
2023-05-24T09:35:37.054Z,101756.53
2023-05-24T09:38:05.031Z,101761.63
2023-05-24T09:40:32.961Z,101756.91
2023-05-24T09:43:07.574Z,101757.41
2023-05-24T09:45:40.384Z,101749.63
2023-05-24T09:48:12.849Z,101753.28
2023-05-24T09:50:41.645Z,101745.41
2023-05-24T09:53:09.993Z,101744.75
2023-05-24T09:55:38.646Z,101748.06
2023-05-24T09:58:11.663Z,101745.44
2023-05-24T10:00:41.622Z,101749.47
2023-05-24T10:03:12.602Z,101753.09
2023-05-24T10:05:43.610Z,101752.78
2023-05-24T10:08:11.677Z,101753.63
2023-05-24T10:10:39.705Z,101755.13
2023-05-24T10:13:09.024Z,101750.31
2023-05-24T10:15:36.930Z,101757.63
2023-05-24T10:18:11.324Z,101752.47
2023-05-24T10:20:42.111Z,101748.13
2023-05-24T10:23:12.073Z,101746.00
2023-05-24T10:25:51.183Z,101742.69
2023-05-24T10:28:23.555Z,101753.84
2023-05-24T10:31:02.936Z,101744.72
2023-05-24T10:33:32.420Z,101742.22
2023-05-24T10:36:00.854Z,101737.88
2023-05-24T10:38:30.879Z,101735.41
2023-05-24T10:40:59.460Z,101742.22
2023-05-24T10:43:28.883Z,101731.38
2023-05-24T10:45:57.107Z,101728.22
2023-05-24T10:48:41.404Z,101724.22
2023-05-24T10:51:34.856Z,101719.22
2023-05-24T10:54:27.366Z,101713.41
2023-05-24T10:56:57.059Z,101719.91
2023-05-24T10:59:37.287Z,101722.91
2023-05-24T11:02:09.850Z,101710.47
2023-05-24T11:04:43.385Z,101706.56
2023-05-24T11:07:12.215Z,101712.75
2023-05-24T11:09:46.163Z,101711.09
2023-05-24T11:12:17.403Z,101702.22
2023-05-24T11:14:51.358Z,101696.41
2023-05-24T11:17:22.021Z,101681.56
2023-05-24T11:19:52.896Z,101689.56
2023-05-24T11:22:22.415Z,101680.25
2023-05-24T11:24:50.502Z,101681.59
2023-05-24T11:27:18.438Z,101681.59
2023-05-24T11:29:47.672Z,101676.75
2023-05-24T11:32:24.130Z,101673.41
2023-05-24T11:37:24.020Z,101655.88
2023-05-24T11:39:57.672Z,101658.88
2023-05-24T11:42:25.726Z,101663.88
2023-05-24T11:44:55.030Z,101662.72
2023-05-24T11:47:24.978Z,101650.53
2023-05-24T11:49:53.184Z,101655.50
2023-05-24T11:52:21.380Z,101656.69
2023-05-24T11:54:50.377Z,101656.53
2023-05-24T11:57:22.521Z,101648.34
2023-05-24T11:59:50.788Z,101638.63
2023-05-24T12:02:19.622Z,101629.28
2023-05-24T12:04:48.981Z,101640.84
2023-05-24T12:07:17.875Z,101632.13
2023-05-24T12:09:45.974Z,101632.13
2023-05-24T12:12:13.980Z,101627.09
2023-05-24T12:14:42.327Z,101616.06
2023-05-24T12:17:16.145Z,101622.41
2023-05-24T12:19:44.713Z,101622.59
2023-05-24T12:22:14.063Z,101615.22
2023-05-24T12:24:42.406Z,101618.25
2023-05-24T12:27:10.380Z,101613.69
2023-05-24T12:29:40.455Z,101609.50
2023-05-24T12:32:13.244Z,101605.66
2023-05-24T12:34:42.889Z,101605.16
2023-05-24T12:37:12.354Z,101598.78
2023-05-24T12:39:43.466Z,101599.31
2023-05-24T12:42:13.362Z,101584.22
2023-05-24T12:44:41.934Z,101589.03
2023-05-24T12:47:11.809Z,101588.22
2023-05-24T12:49:40.171Z,101583.22
2023-05-24T12:52:08.211Z,101585.84
2023-05-24T12:54:36.381Z,101590.31
2023-05-24T12:57:06.320Z,101591.84
2023-05-24T12:59:35.038Z,101587.81
2023-05-24T13:02:03.141Z,101575.78
2023-05-24T13:04:33.657Z,101582.59
2023-05-24T13:07:02.960Z,101582.94
2023-05-24T13:09:30.862Z,101576.59
2023-05-24T13:11:58.848Z,101581.78
2023-05-24T13:14:28.621Z,101579.91
2023-05-24T13:16:56.621Z,101572.41
2023-05-24T13:19:24.525Z,101571.72
2023-05-24T13:21:52.552Z,101573.53
2023-05-24T13:24:20.703Z,101565.03
2023-05-24T13:26:49.102Z,101557.13
2023-05-24T13:29:34.272Z,101551.44
2023-05-24T13:32:07.559Z,101555.00
2023-05-24T13:34:35.532Z,101558.16
2023-05-24T13:37:03.529Z,101557.59
2023-05-24T13:39:31.456Z,101557.41
2023-05-24T13:42:00.906Z,101548.94
2023-05-24T13:44:29.528Z,101538.56
2023-05-24T13:46:57.935Z,101543.50
2023-05-24T13:49:27.770Z,101534.63
2023-05-24T13:51:58.483Z,101532.59
2023-05-24T13:54:26.687Z,101517.38
2023-05-24T13:56:57.647Z,101524.34
2023-05-24T13:59:25.887Z,101515.59
2023-05-24T14:01:53.941Z,101527.06
2023-05-24T14:04:21.984Z,101511.00
2023-05-24T14:06:51.417Z,101514.22
2023-05-24T14:09:21.325Z,101511.00
2023-05-24T14:11:49.393Z,101502.31
2023-05-24T14:16:51.880Z,101500.09
2023-05-24T14:19:19.859Z,101501.75
2023-05-24T14:21:47.783Z,101503.63
2023-05-24T14:24:17.071Z,101496.03
2023-05-24T14:26:47.617Z,101490.31
2023-05-24T14:29:15.555Z,101501.41
2023-05-24T14:31:43.636Z,101500.28
2023-05-24T14:34:12.300Z,101492.06
2023-05-24T14:36:44.064Z,101488.38
2023-05-24T14:39:12.038Z,101496.22
2023-05-24T14:41:41.346Z,101494.22
2023-05-24T14:44:09.353Z,101484.88
2023-05-24T14:46:37.330Z,101486.41
2023-05-24T14:49:05.765Z,101478.16
2023-05-24T14:51:33.692Z,101485.09
2023-05-24T14:54:01.578Z,101479.56
2023-05-24T14:56:29.487Z,101484.81
2023-05-24T14:58:59.814Z,101478.13
2023-05-24T15:01:27.797Z,101475.25
2023-05-24T15:03:55.913Z,101477.09
2023-05-24T15:06:24.077Z,101466.50
2023-05-24T15:08:52.597Z,101465.91
2023-05-24T15:11:20.856Z,101473.13
2023-05-24T15:13:48.757Z,101470.09
2023-05-24T15:16:18.111Z,101465.56
2023-05-24T15:18:46.330Z,101463.91
2023-05-24T15:21:14.289Z,101464.09
2023-05-24T15:23:42.272Z,101461.88
2023-05-24T15:26:10.224Z,101461.53
2023-05-24T15:28:38.212Z,101460.84
2023-05-24T15:31:06.760Z,101462.88
2023-05-24T15:33:37.198Z,101457.16
2023-05-24T15:36:04.932Z,101450.44
2023-05-24T15:38:32.818Z,101449.41
2023-05-24T15:41:00.776Z,101446.91
2023-05-24T15:43:30.924Z,101446.25
2023-05-24T15:45:58.965Z,101447.94
2023-05-24T15:48:26.872Z,101445.06
2023-05-24T15:51:25.680Z,101437.22
2023-05-24T15:53:44.191Z,101434.91
2023-05-24T15:56:12.273Z,101432.22
2023-05-24T15:58:40.195Z,101435.09
2023-05-24T16:01:08.210Z,101440.25
2023-05-24T16:03:38.063Z,101438.41
2023-05-24T16:06:08.303Z,101423.16
2023-05-24T16:08:36.173Z,101429.63
2023-05-24T16:11:08.160Z,101424.63
2023-05-24T16:13:36.309Z,101420.47
2023-05-24T16:16:04.313Z,101419.09
2023-05-24T16:18:34.631Z,101420.09
2023-05-24T16:21:02.690Z,101427.88
2023-05-24T16:23:32.164Z,101417.84
2023-05-24T16:26:00.210Z,101417.16
2023-05-24T16:28:28.231Z,101416.19
2023-05-24T16:30:57.451Z,101412.84
2023-05-24T16:33:25.934Z,101412.16
2023-05-24T16:35:56.493Z,101406.19
2023-05-24T16:38:25.576Z,101411.72
2023-05-24T16:40:55.120Z,101405.34
2023-05-24T16:43:23.139Z,101415.75
2023-05-24T16:45:51.485Z,101414.94
2023-05-24T16:48:21.788Z,101412.44
2023-05-24T16:50:51.664Z,101408.56
2023-05-24T16:53:20.453Z,101404.41
2023-05-24T16:55:53.584Z,101398.75
2023-05-24T16:58:23.305Z,101406.97
2023-05-24T17:00:51.188Z,101403.19
2023-05-24T17:03:22.072Z,101393.31
2023-05-24T17:05:50.381Z,101396.53
2023-05-24T17:08:18.960Z,101399.22
2023-05-24T17:10:46.839Z,101396.53
2023-05-24T17:13:14.871Z,101388.03
2023-05-24T17:15:44.292Z,101391.41
2023-05-24T17:18:12.694Z,101394.31
2023-05-24T17:20:40.694Z,101390.53
2023-05-24T17:23:08.737Z,101390.47
2023-05-24T17:25:36.749Z,101392.34
2023-05-24T17:28:04.716Z,101391.00
2023-05-24T17:30:33.318Z,101392.38
2023-05-24T17:33:02.673Z,101391.53
2023-05-24T17:35:30.692Z,101386.88
2023-05-24T17:37:58.638Z,101393.41
2023-05-24T17:40:26.690Z,101383.78
2023-05-24T17:42:54.638Z,101393.34
2023-05-24T17:45:22.761Z,101377.69
2023-05-24T17:47:50.781Z,101395.25
2023-05-24T17:50:20.200Z,101388.78
2023-05-24T17:52:48.215Z,101396.81
2023-05-24T17:55:16.225Z,101396.78
2023-05-24T17:57:44.816Z,101393.81
2023-05-24T18:00:16.529Z,101390.81
2023-05-24T18:02:44.975Z,101385.00
2023-05-24T18:05:12.966Z,101387.00
2023-05-24T18:07:42.249Z,101387.69
2023-05-24T18:10:10.844Z,101378.66
2023-05-24T18:12:38.780Z,101380.00
2023-05-24T18:15:08.530Z,101383.03
2023-05-24T18:17:37.131Z,101384.84
2023-05-24T18:20:05.806Z,101388.88
2023-05-24T18:22:33.825Z,101386.53
2023-05-24T18:25:03.164Z,101395.91
2023-05-24T18:27:31.051Z,101396.25
2023-05-24T18:29:59.358Z,101392.09
2023-05-24T18:32:27.465Z,101395.94
2023-05-24T18:34:57.072Z,101392.75
2023-05-24T18:37:25.082Z,101383.91
2023-05-24T18:39:52.962Z,101385.75
2023-05-24T18:42:24.398Z,101386.56
2023-05-24T18:44:52.351Z,101388.88
2023-05-24T18:47:20.318Z,101390.03
2023-05-24T18:49:48.362Z,101394.88
2023-05-24T18:52:16.427Z,101391.53
2023-05-24T18:54:44.382Z,101391.53
2023-05-24T18:57:12.591Z,101392.66
2023-05-24T18:59:41.964Z,101396.16
2023-05-24T19:02:09.945Z,101394.28
2023-05-24T19:04:37.935Z,101387.78
2023-05-24T19:07:06.533Z,101400.38
2023-05-24T19:09:34.637Z,101406.19
2023-05-24T19:12:04.600Z,101397.03
2023-05-24T19:14:32.585Z,101401.47
2023-05-24T19:17:01.940Z,101402.25
2023-05-24T19:19:30.274Z,101408.22
2023-05-24T19:21:58.169Z,101402.81
2023-05-24T19:24:26.159Z,101401.63
2023-05-24T19:26:54.437Z,101411.75
2023-05-24T19:29:22.333Z,101410.03
2023-05-24T19:31:50.971Z,101408.25
2023-05-24T19:34:20.973Z,101405.03
2023-05-24T19:36:48.998Z,101409.53
2023-05-24T19:39:17.014Z,101407.03
2023-05-24T19:41:44.972Z,101411.50
2023-05-24T19:44:12.853Z,101403.31
2023-05-24T19:46:40.782Z,101402.25
2023-05-24T19:49:08.787Z,101408.50
2023-05-24T19:51:38.267Z,101405.31
2023-05-24T19:54:06.179Z,101407.16
2023-05-24T19:56:34.174Z,101398.94
2023-05-24T19:59:02.168Z,101398.94
2023-05-24T20:01:30.141Z,101400.75
2023-05-24T20:03:58.376Z,101390.44
2023-05-24T20:06:26.507Z,101391.06
2023-05-24T20:08:58.838Z,101388.31
2023-05-24T20:11:26.967Z,101391.28
2023-05-24T20:13:55.989Z,101399.72
2023-05-24T20:16:24.356Z,101397.38
2023-05-24T20:18:52.416Z,101391.34
2023-05-24T20:21:20.518Z,101384.06
2023-05-24T20:23:50.663Z,101392.34
2023-05-24T20:26:20.073Z,101394.47
2023-05-24T20:28:50.110Z,101390.56
2023-05-24T20:31:18.339Z,101386.41
2023-05-24T20:33:46.281Z,101382.19
2023-05-24T20:36:15.610Z,101378.19
2023-05-24T20:38:43.538Z,101374.69
2023-05-24T20:41:11.509Z,101374.53
2023-05-24T20:43:40.876Z,101379.19
2023-05-24T20:46:08.882Z,101380.34
2023-05-24T20:48:36.955Z,101376.13
2023-05-24T20:51:05.089Z,101377.44
2023-05-24T20:53:33.082Z,101379.53
2023-05-24T20:56:01.983Z,101383.03
2023-05-24T20:58:31.442Z,101387.66
2023-05-24T21:01:01.028Z,101375.81
2023-05-24T21:03:29.094Z,101378.22
2023-05-24T21:05:57.250Z,101374.91
2023-05-24T21:08:25.192Z,101372.53
2023-05-24T21:10:55.584Z,101367.69
2023-05-24T21:13:25.493Z,101368.78
2023-05-24T21:15:53.493Z,101372.03
2023-05-24T21:18:22.850Z,101362.56
2023-05-24T21:20:50.797Z,101360.59
2023-05-24T21:23:18.836Z,101356.41
2023-05-24T21:25:46.842Z,101357.53
2023-05-24T21:28:15.108Z,101359.53
2023-05-24T21:30:43.231Z,101357.03
2023-05-24T21:33:11.333Z,101354.22
2023-05-24T21:35:40.824Z,101352.00
2023-05-24T21:38:08.775Z,101355.94
2023-05-24T21:40:36.677Z,101351.59
2023-05-24T21:43:05.222Z,101344.78
2023-05-24T21:45:33.220Z,101343.09
2023-05-24T21:48:01.504Z,101351.34
2023-05-24T21:50:29.472Z,101351.66
2023-05-24T21:52:58.820Z,101356.44
2023-05-24T21:55:26.824Z,101349.00
2023-05-24T21:57:54.654Z,101352.19
2023-05-24T22:00:23.277Z,101352.50
2023-05-24T22:02:51.305Z,101350.81
2023-05-24T22:05:20.459Z,101357.78
2023-05-24T22:07:48.412Z,101360.44
2023-05-24T22:10:17.974Z,101362.25
2023-05-24T22:12:45.828Z,101360.75
2023-05-24T22:15:13.711Z,101361.59
2023-05-24T22:17:42.124Z,101355.59
2023-05-24T22:20:11.598Z,101358.78
2023-05-24T22:22:48.836Z,101355.28
2023-05-24T22:25:19.631Z,101348.31
2023-05-24T22:27:48.515Z,101356.44
2023-05-24T22:30:16.858Z,101363.69
2023-05-24T22:32:44.969Z,101355.88
2023-05-24T22:35:13.158Z,101355.00
2023-05-24T22:37:41.302Z,101357.13
2023-05-24T22:40:10.091Z,101353.91
2023-05-24T22:42:39.310Z,101355.72
2023-05-24T22:45:08.470Z,101360.22
2023-05-24T22:47:36.534Z,101356.56
2023-05-24T22:50:04.804Z,101355.06
2023-05-24T22:52:34.293Z,101363.16
2023-05-24T22:55:02.282Z,101361.31
2023-05-24T22:57:30.196Z,101363.28
2023-05-24T22:59:59.449Z,101364.09
2023-05-24T23:02:29.089Z,101357.28
2023-05-24T23:04:57.256Z,101357.44
2023-05-24T23:07:25.247Z,101366.25
2023-05-24T23:09:53.458Z,101371.69
2023-05-24T23:12:21.736Z,101373.19
2023-05-24T23:14:49.825Z,101365.94
2023-05-24T23:17:20.597Z,101364.25
2023-05-24T23:19:50.490Z,101368.44
2023-05-24T23:22:19.388Z,101363.72
2023-05-24T23:24:48.251Z,101361.91
2023-05-24T23:27:16.404Z,101360.94
2023-05-24T23:29:44.279Z,101360.94
2023-05-24T23:32:12.728Z,101358.56
2023-05-24T23:34:42.117Z,101360.38
2023-05-24T23:37:09.972Z,101368.19
2023-05-24T23:39:37.837Z,101371.97
2023-05-24T23:42:06.720Z,101372.41
2023-05-24T23:44:34.665Z,101383.00
2023-05-24T23:47:03.158Z,101383.84
2023-05-24T23:49:31.680Z,101381.50
2023-05-24T23:52:00.983Z,101388.88
2023-05-24T23:54:28.824Z,101388.31
2023-05-24T23:56:56.724Z,101383.03
2023-05-24T23:59:24.583Z,101390.44
